createdAt,value
2019-02-11T00:00:42.952Z,693.5
2019-02-11T00:01:45.115Z,692.2
2019-02-11T00:02:47.278Z,692.4
2019-02-11T00:03:49.703Z,692.7
2019-02-11T00:04:52.127Z,692.4
2019-02-11T00:05:54.551Z,691
2019-02-11T00:06:56.977Z,691.8
2019-02-11T00:07:59.400Z,691.1
2019-02-11T00:09:01.825Z,690
2019-02-11T00:10:04.243Z,690.7
2019-02-11T00:11:06.129Z,691.9
2019-02-11T00:12:08.289Z,691
2019-02-11T00:13:12.841Z,691.2
2019-02-11T00:14:14.709Z,690.5
2019-02-11T00:15:17.134Z,691.5
2019-02-11T00:16:19.293Z,690.8
2019-02-11T00:17:23.171Z,691
2019-02-11T00:18:25.595Z,692.5
2019-02-11T00:19:28.031Z,691.3
2019-02-11T00:20:29.916Z,691.8
2019-02-11T00:21:32.359Z,691
2019-02-11T00:22:34.791Z,691
2019-02-11T00:23:36.934Z,690
2019-02-11T00:24:39.093Z,690.4
2019-02-11T00:25:41.513Z,689.7
2019-02-11T00:26:43.675Z,690
2019-02-11T00:27:45.822Z,689.8
2019-02-11T00:28:47.985Z,690.1
2019-02-11T00:29:50.407Z,690
2019-02-11T00:30:52.838Z,689.7
2019-02-11T00:31:55.272Z,690
2019-02-11T00:32:58.112Z,689.7
2019-02-11T00:34:00.281Z,690.2
2019-02-11T00:35:02.712Z,689.7
2019-02-11T00:36:04.594Z,689.9
2019-02-11T00:37:07.015Z,689.3
2019-02-11T00:38:09.454Z,690.1
2019-02-11T00:39:11.345Z,690.3
2019-02-11T00:40:13.773Z,689.7
2019-02-11T00:41:16.206Z,690.6
2019-02-11T00:42:18.624Z,690.5
2019-02-11T00:43:21.431Z,689.6
2019-02-11T00:44:23.595Z,689.3
2019-02-11T00:45:25.745Z,689.6
2019-02-11T00:46:27.901Z,689.5
2019-02-11T00:47:30.329Z,688.3
2019-02-11T00:48:32.469Z,689.2
2019-02-11T00:49:34.894Z,688.6
2019-02-11T00:50:37.316Z,688.4
2019-02-11T00:51:39.471Z,688.2
2019-02-11T00:52:41.893Z,688.3
2019-02-11T00:53:44.324Z,687.4
2019-02-11T00:54:46.471Z,688.5
2019-02-11T00:55:48.893Z,688.9
2019-02-11T00:56:51.053Z,688.3
2019-02-11T00:57:53.186Z,688.3
2019-02-11T00:58:55.055Z,687.9
2019-02-11T00:59:57.511Z,688.8
2019-02-11T01:00:59.664Z,688.3
2019-02-11T01:02:02.081Z,688.2
2019-02-11T01:03:03.961Z,688.7
2019-02-11T01:04:05.851Z,689
2019-02-11T01:05:08.009Z,688.4
2019-02-11T01:06:10.431Z,688
2019-02-11T01:07:12.321Z,687.8
2019-02-11T01:08:14.742Z,688.3
2019-02-11T01:09:16.645Z,687.7
2019-02-11T01:10:18.811Z,688.3
2019-02-11T01:11:20.685Z,688.5
2019-02-11T01:12:23.108Z,688.2
2019-02-11T01:14:30.509Z,687
2019-02-11T01:15:32.383Z,687.2
2019-02-11T01:16:34.815Z,686.8
2019-02-11T01:17:37.245Z,686.6
2019-02-11T01:18:42.735Z,685.9
2019-02-11T01:19:44.895Z,686.7
2019-02-11T01:20:47.053Z,685.7
2019-02-11T01:21:48.931Z,686
2019-02-11T01:22:51.356Z,686
2019-02-11T01:23:53.787Z,685.4
2019-02-11T01:24:55.933Z,686.5
2019-02-11T01:25:58.369Z,685.7
2019-02-11T01:27:00.511Z,685.4
2019-02-11T01:28:02.401Z,686.2
2019-02-11T01:29:04.562Z,686.2
2019-02-11T01:30:06.995Z,686.5
2019-02-11T01:31:09.423Z,686.1
2019-02-11T01:32:11.298Z,686.4
2019-02-11T01:33:13.732Z,686.3
2019-02-11T01:34:16.173Z,686.2
2019-02-11T01:35:18.592Z,685.8
2019-02-11T01:36:21.013Z,685.7
2019-02-11T01:37:23.163Z,686.7
2019-02-11T01:38:25.323Z,685.8
2019-02-11T01:39:27.469Z,686.7
2019-02-11T01:40:29.053Z,685.6
2019-02-11T01:41:31.477Z,685.9
2019-02-11T01:42:33.902Z,686
2019-02-11T01:43:38.155Z,685.9
2019-02-11T01:44:40.047Z,685.4
2019-02-11T01:45:42.518Z,685.3
2019-02-11T01:46:44.949Z,685.7
2019-02-11T01:47:47.369Z,686.2
2019-02-11T01:48:49.812Z,685.4
2019-02-11T01:49:52.233Z,685.7
2019-02-11T01:50:54.107Z,685.3
2019-02-11T01:51:56.253Z,685.3
2019-02-11T01:52:58.723Z,685.3
2019-02-11T01:54:00.303Z,685.1
2019-02-11T01:55:02.426Z,684.6
2019-02-11T01:56:04.299Z,685.4
2019-02-11T01:57:06.779Z,684.5
2019-02-11T01:58:09.202Z,684.4
2019-02-11T01:59:11.353Z,684.8
2019-02-11T02:00:13.773Z,683.9
2019-02-11T02:01:16.201Z,683.6
2019-02-11T02:02:18.075Z,683
2019-02-11T02:03:19.937Z,683.6
2019-02-11T02:04:22.377Z,682.6
2019-02-11T02:05:24.811Z,683.7
2019-02-11T02:06:26.685Z,683.2
2019-02-11T02:07:29.113Z,684.2
2019-02-11T02:08:31.556Z,683.5
2019-02-11T02:09:33.993Z,684.4
2019-02-11T02:10:36.145Z,683.8
2019-02-11T02:11:38.293Z,684.4
2019-02-11T02:12:40.433Z,684.1
2019-02-11T02:14:47.833Z,684.1
2019-02-11T02:15:49.713Z,684
2019-02-11T02:16:51.600Z,684.7
2019-02-11T02:17:53.529Z,684.2
2019-02-11T02:18:55.953Z,683.5
2019-02-11T02:19:57.858Z,683.7
2019-02-11T02:21:00.484Z,684
2019-02-11T02:22:02.643Z,683.6
2019-02-11T02:23:04.531Z,683.6
2019-02-11T02:24:06.419Z,682.6
2019-02-11T02:25:08.579Z,682.3
2019-02-11T02:26:11.003Z,682.2
2019-02-11T02:27:13.421Z,682.8
2019-02-11T02:28:15.581Z,682.5
2019-02-11T02:29:17.710Z,682.2
2019-02-11T02:30:20.142Z,682.1
2019-02-11T02:31:22.574Z,681.9
2019-02-11T02:32:24.711Z,681.6
2019-02-11T02:33:27.135Z,681.7
2019-02-11T02:34:29.293Z,681
2019-02-11T02:35:31.435Z,681.3
2019-02-11T02:36:33.855Z,681.7
2019-02-11T02:37:35.988Z,680.3
2019-02-11T02:38:38.142Z,681.1
2019-02-11T02:39:40.295Z,680.6
2019-02-11T02:40:42.443Z,680.8
2019-02-11T02:41:44.864Z,680.7
2019-02-11T02:42:47.022Z,680.6
2019-02-11T02:44:54.164Z,680
2019-02-11T02:45:56.323Z,679.8
2019-02-11T02:46:58.745Z,679.4
2019-02-11T02:48:00.337Z,679.1
2019-02-11T02:49:02.483Z,680
2019-02-11T02:50:04.910Z,679.9
2019-02-11T02:51:07.342Z,680.1
2019-02-11T02:52:09.775Z,679.6
2019-02-11T02:53:11.934Z,679.5
2019-02-11T02:54:14.341Z,679.2
2019-02-11T02:55:16.769Z,679.9
2019-02-11T02:56:19.194Z,679.2
2019-02-11T02:57:21.376Z,679.5
2019-02-11T02:58:23.803Z,680
2019-02-11T02:59:25.964Z,680
2019-02-11T03:00:28.103Z,680.2
2019-02-11T03:01:29.957Z,680
2019-02-11T03:02:32.473Z,680.3
2019-02-11T03:03:34.336Z,679.8
2019-02-11T03:04:36.777Z,679.8
2019-02-11T03:05:39.198Z,678.5
2019-02-11T03:06:41.624Z,679.2
2019-02-11T03:07:43.788Z,679
2019-02-11T03:08:45.713Z,679.1
2019-02-11T03:09:47.887Z,678
2019-02-11T03:10:50.307Z,679.3
2019-02-11T03:11:52.465Z,679.4
2019-02-11T03:12:54.795Z,679.2
2019-02-11T03:15:01.935Z,679.9
2019-02-11T03:16:04.363Z,679.6
2019-02-11T03:17:06.513Z,679.5
2019-02-11T03:18:08.649Z,679.1
2019-02-11T03:19:11.083Z,679.3
2019-02-11T03:20:13.509Z,679
2019-02-11T03:21:15.941Z,678.9
2019-02-11T03:22:17.803Z,677.7
2019-02-11T03:23:19.668Z,678.8
2019-02-11T03:24:21.824Z,677.7
2019-02-11T03:25:24.272Z,677.8
2019-02-11T03:26:26.702Z,677.3
2019-02-11T03:27:29.123Z,677.4
2019-02-11T03:28:31.263Z,676.8
2019-02-11T03:29:33.690Z,676.9
2019-02-11T03:30:36.152Z,675.9
2019-02-11T03:31:38.595Z,676.2
2019-02-11T03:32:41.055Z,675.4
2019-02-11T03:33:43.229Z,675.7
2019-02-11T03:34:45.136Z,675.6
2019-02-11T03:35:47.545Z,675.6
2019-02-11T03:36:49.983Z,675.4
2019-02-11T03:37:52.149Z,676.7
2019-02-11T03:38:54.575Z,676.7
2019-02-11T03:39:57.005Z,676.5
2019-02-11T03:40:59.152Z,676
2019-02-11T03:42:01.579Z,676.1
2019-02-11T03:43:03.995Z,675.4
2019-02-11T03:45:12.081Z,676.2
2019-02-11T03:46:14.518Z,676.2
2019-02-11T03:47:16.683Z,676
2019-02-11T03:48:19.115Z,676
2019-02-11T03:49:21.540Z,676.1
2019-02-11T03:50:23.964Z,676.1
2019-02-11T03:51:26.135Z,676.4
2019-02-11T03:52:27.743Z,675.9
2019-02-11T03:53:30.171Z,675.9
2019-02-11T03:54:32.329Z,676.2
2019-02-11T03:55:34.746Z,675.7
2019-02-11T03:56:37.169Z,675.6
2019-02-11T03:57:39.598Z,675.5
2019-02-11T03:58:41.754Z,675.4
2019-02-11T03:59:44.187Z,675.2
2019-02-11T04:00:46.619Z,675.4
2019-02-11T04:01:49.064Z,675.1
2019-02-11T04:02:51.219Z,674.3
2019-02-11T04:03:53.384Z,674.3
2019-02-11T04:04:55.546Z,674
2019-02-11T04:05:58.013Z,674
2019-02-11T04:07:00.164Z,673.6
2019-02-11T04:08:01.774Z,673.5
2019-02-11T04:09:04.198Z,673.4
2019-02-11T04:10:06.354Z,672
2019-02-11T04:11:08.516Z,671.8
2019-02-11T04:12:10.372Z,671.3
2019-02-11T04:13:12.523Z,671.5
2019-02-11T04:14:24.080Z,671.3
2019-02-11T04:15:21.574Z,671.3
2019-02-11T04:16:23.725Z,671.3
2019-02-11T04:17:25.586Z,670.6
2019-02-11T04:18:28.002Z,670.7
2019-02-11T04:19:30.504Z,670.5
2019-02-11T04:20:32.652Z,670.4
2019-02-11T04:21:35.097Z,670.6
2019-02-11T04:22:37.531Z,670.3
2019-02-11T04:23:39.700Z,670
2019-02-11T04:24:42.121Z,669.8
2019-02-11T04:25:44.267Z,668.8
2019-02-11T04:26:46.691Z,669.2
2019-02-11T04:27:48.305Z,669
2019-02-11T04:28:50.449Z,669
2019-02-11T04:29:52.603Z,668.3
2019-02-11T04:30:55.038Z,669.2
2019-02-11T04:31:57.610Z,668.9
2019-02-11T04:33:00.060Z,668.4
2019-02-11T04:34:02.510Z,668.6
2019-02-11T04:35:04.670Z,669.1
2019-02-11T04:36:06.848Z,668
2019-02-11T04:37:09.280Z,667.8
2019-02-11T04:38:11.511Z,667.9
2019-02-11T04:39:13.672Z,667.7
2019-02-11T04:40:15.840Z,667.6
2019-02-11T04:41:18.004Z,667.7
2019-02-11T04:42:20.163Z,667.5
2019-02-11T04:43:22.595Z,666.7
2019-02-11T04:45:30.708Z,667.5
2019-02-11T04:46:32.865Z,667.2
2019-02-11T04:47:35.019Z,667.4
2019-02-11T04:48:37.476Z,666.4
2019-02-11T04:49:39.924Z,667.1
2019-02-11T04:50:42.387Z,667.3
2019-02-11T04:51:44.300Z,666.6
2019-02-11T04:52:46.197Z,667.2
2019-02-11T04:53:48.406Z,667.5
2019-02-11T04:54:50.836Z,666.7
2019-02-11T04:55:53.290Z,666.9
2019-02-11T04:56:55.734Z,666.7
2019-02-11T04:57:57.870Z,667.2
2019-02-11T04:59:00.046Z,666.3
2019-02-11T05:00:02.580Z,666.4
2019-02-11T05:01:04.744Z,666.2
2019-02-11T05:02:07.197Z,665.6
2019-02-11T05:03:09.626Z,665.6
2019-02-11T05:04:12.067Z,665.9
2019-02-11T05:05:14.235Z,665.4
2019-02-11T05:06:16.399Z,665.5
2019-02-11T05:07:18.844Z,665.3
2019-02-11T05:08:21.002Z,665.7
2019-02-11T05:09:23.154Z,664.5
2019-02-11T05:10:25.605Z,664.6
2019-02-11T05:11:28.034Z,665
2019-02-11T05:12:30.467Z,665.1
2019-02-11T05:13:32.681Z,665.4
2019-02-11T05:15:40.567Z,664.8
2019-02-11T05:16:43.012Z,664.7
2019-02-11T05:17:45.167Z,664.5
2019-02-11T05:18:47.584Z,665.6
2019-02-11T05:19:50.031Z,665.1
2019-02-11T05:20:52.180Z,665
2019-02-11T05:21:54.380Z,665
2019-02-11T05:22:56.834Z,664.6
2019-02-11T05:23:58.966Z,664.8
2019-02-11T05:25:01.134Z,664.4
2019-02-11T05:26:03.307Z,664.3
2019-02-11T05:27:05.480Z,663.7
2019-02-11T05:28:07.931Z,663.8
2019-02-11T05:29:10.374Z,663.9
2019-02-11T05:30:12.289Z,663.6
2019-02-11T05:31:14.426Z,663.8
2019-02-11T05:32:16.333Z,663.7
2019-02-11T05:33:18.929Z,663
2019-02-11T05:34:21.403Z,663
2019-02-11T05:35:23.544Z,662.5
2019-02-11T05:36:25.971Z,661.5
2019-02-11T05:37:28.398Z,661.8
2019-02-11T05:38:30.279Z,661.8
2019-02-11T05:39:32.128Z,661.4
2019-02-11T05:40:34.554Z,660.6
2019-02-11T05:41:36.978Z,660.1
2019-02-11T05:42:38.855Z,659.7
2019-02-11T05:43:41.300Z,660
2019-02-11T05:45:50.150Z,659.9
2019-02-11T05:46:52.615Z,659.2
2019-02-11T05:47:54.486Z,659.4
2019-02-11T05:48:56.915Z,659.1
2019-02-11T05:49:59.348Z,659.3
2019-02-11T05:51:01.772Z,659.3
2019-02-11T05:52:04.203Z,659.4
2019-02-11T05:53:06.362Z,658.6
2019-02-11T05:54:08.774Z,659.2
2019-02-11T05:55:11.205Z,658.5
2019-02-11T05:56:13.347Z,658.8
2019-02-11T05:57:15.762Z,659
2019-02-11T05:58:18.212Z,659.4
2019-02-11T05:59:20.644Z,658.4
2019-02-11T06:00:23.062Z,658.6
2019-02-11T06:01:25.482Z,658
2019-02-11T06:02:27.912Z,658.1
2019-02-11T06:03:30.364Z,657.6
2019-02-11T06:04:32.804Z,657.5
2019-02-11T06:05:34.682Z,657.2
2019-02-11T06:06:37.104Z,656.9
2019-02-11T06:07:39.240Z,656.6
2019-02-11T06:08:41.676Z,656.4
2019-02-11T06:09:43.815Z,656.9
2019-02-11T06:10:46.240Z,656.5
2019-02-11T06:11:48.684Z,655.4
2019-02-11T06:12:51.115Z,655.3
2019-02-11T06:13:53.285Z,655.6
2019-02-11T06:16:00.434Z,655.3
2019-02-11T06:17:02.595Z,654.7
2019-02-11T06:18:04.494Z,654.4
2019-02-11T06:19:06.403Z,654.2
2019-02-11T06:20:08.569Z,654.2
2019-02-11T06:21:10.994Z,653.6
2019-02-11T06:22:13.164Z,653.9
2019-02-11T06:23:15.588Z,653.6
2019-02-11T06:24:18.004Z,653.5
2019-02-11T06:25:20.425Z,652.9
2019-02-11T06:26:22.852Z,652.6
2019-02-11T06:27:25.305Z,652.6
2019-02-11T06:28:27.442Z,652.4
2019-02-11T06:29:29.068Z,651.8
2019-02-11T06:30:31.490Z,651.9
2019-02-11T06:31:33.913Z,651.6
2019-02-11T06:32:36.128Z,651.5
2019-02-11T06:33:39.972Z,651.6
2019-02-11T06:34:41.838Z,651.2
2019-02-11T06:35:44.264Z,651.1
2019-02-11T06:36:46.402Z,650.7
2019-02-11T06:37:48.548Z,650.6
2019-02-11T06:38:50.677Z,650.5
2019-02-11T06:39:53.110Z,650.2
2019-02-11T06:40:55.266Z,649.6
2019-02-11T06:41:57.694Z,648.8
2019-02-11T06:43:00.122Z,649.2
2019-02-11T06:44:01.726Z,649.2
2019-02-11T06:46:10.335Z,648.8
2019-02-11T06:47:12.495Z,648.4
2019-02-11T06:48:14.922Z,648
2019-02-11T06:49:17.344Z,648.8
2019-02-11T06:50:19.506Z,647.5
2019-02-11T06:51:21.947Z,647.6
2019-02-11T06:52:24.378Z,647.4
2019-02-11T06:53:26.532Z,647.4
2019-02-11T06:54:28.676Z,646.6
2019-02-11T06:55:30.544Z,646.9
2019-02-11T06:56:32.714Z,646.9
2019-02-11T06:57:34.854Z,646.3
2019-02-11T06:58:37.292Z,646.3
2019-02-11T06:59:39.721Z,646
2019-02-11T07:00:42.154Z,645.1
2019-02-11T07:01:44.595Z,645.8
2019-02-11T07:02:46.750Z,645
2019-02-11T07:03:49.192Z,645.5
2019-02-11T07:04:51.613Z,644.9
2019-02-11T07:05:54.038Z,644.3
2019-02-11T07:06:56.202Z,644.5
2019-02-11T07:07:58.365Z,644.2
2019-02-11T07:09:00.793Z,643.6
2019-02-11T07:10:03.208Z,643.6
2019-02-11T07:11:05.643Z,643.3
2019-02-11T07:12:08.066Z,643.2
2019-02-11T07:13:10.498Z,642.3
2019-02-11T07:14:12.367Z,642
2019-02-11T07:16:19.784Z,641.7
2019-02-11T07:17:21.683Z,641
2019-02-11T07:18:23.824Z,641
2019-02-11T07:19:26.253Z,640.6
2019-02-11T07:20:28.682Z,640.5
2019-02-11T07:21:31.114Z,640
2019-02-11T07:22:33.265Z,639.8
2019-02-11T07:23:35.680Z,639.4
2019-02-11T07:24:38.133Z,639.1
2019-02-11T07:25:40.284Z,639
2019-02-11T07:26:42.434Z,638.8
2019-02-11T07:27:44.862Z,638.3
2019-02-11T07:28:47.295Z,638.3
2019-02-11T07:29:49.445Z,638.6
2019-02-11T07:30:51.879Z,638.3
2019-02-11T07:31:53.773Z,638
2019-02-11T07:32:55.393Z,638.2
2019-02-11T07:33:57.826Z,637.7
2019-02-11T07:35:00.332Z,638.3
2019-02-11T07:36:03.415Z,637.6
2019-02-11T07:37:05.842Z,637.6
2019-02-11T07:38:08.282Z,637.1
2019-02-11T07:39:09.891Z,637.3
2019-02-11T07:40:12.322Z,637.2
2019-02-11T07:41:14.739Z,636.9
2019-02-11T07:42:17.161Z,636
2019-02-11T07:43:19.599Z,636.4
2019-02-11T07:44:21.740Z,636.3
2019-02-11T07:46:29.147Z,635.8
2019-02-11T07:47:31.568Z,636.6
2019-02-11T07:48:33.984Z,635.9
2019-02-11T07:49:35.670Z,635.8
2019-02-11T07:50:38.101Z,635.6
2019-02-11T07:52:45.234Z,635.4
2019-02-11T07:53:47.124Z,635.3
2019-02-11T07:54:49.007Z,635.1
2019-02-11T07:55:51.161Z,635
2019-02-11T07:56:53.325Z,635.4
2019-02-11T07:57:55.755Z,634.4
2019-02-11T07:58:58.204Z,634.5
2019-02-11T08:00:00.761Z,634.5
2019-02-11T08:01:03.227Z,633.7
2019-02-11T08:02:05.409Z,634.8
2019-02-11T08:03:07.546Z,634.4
2019-02-11T08:04:09.974Z,633.9
2019-02-11T08:05:12.403Z,633.7
2019-02-11T08:06:14.307Z,633.4
2019-02-11T08:07:16.755Z,633.3
2019-02-11T08:08:19.180Z,632.7
2019-02-11T08:09:21.613Z,633.3
2019-02-11T08:10:23.504Z,632.5
2019-02-11T08:11:25.651Z,632.5
2019-02-11T08:12:27.813Z,632.2
2019-02-11T08:13:29.971Z,632.8
2019-02-11T08:14:32.126Z,632.1
2019-02-11T08:16:39.299Z,631.7
2019-02-11T08:17:41.735Z,631.8
2019-02-11T08:18:43.908Z,632.2
2019-02-11T08:19:46.324Z,631.9
2019-02-11T08:20:48.744Z,631.4
2019-02-11T08:21:50.350Z,631.2
2019-02-11T08:22:52.527Z,631
2019-02-11T08:23:54.953Z,630.9
2019-02-11T08:24:57.402Z,631
2019-02-11T08:25:59.834Z,630.6
2019-02-11T08:27:02.005Z,630.1
2019-02-11T08:28:04.442Z,630
2019-02-11T08:29:06.883Z,630.3
2019-02-11T08:30:09.039Z,629.8
2019-02-11T08:31:11.467Z,629.3
2019-02-11T08:32:13.611Z,629.3
2019-02-11T08:33:16.044Z,628.7
2019-02-11T08:34:18.489Z,629.3
2019-02-11T08:35:20.906Z,627.9
2019-02-11T08:36:22.801Z,628.5
2019-02-11T08:37:24.685Z,628
2019-02-11T08:38:26.575Z,627.7
2019-02-11T08:39:28.746Z,628
2019-02-11T08:40:30.637Z,627.9
2019-02-11T08:41:32.795Z,627.1
2019-02-11T08:42:35.222Z,627
2019-02-11T08:43:37.103Z,627.3
2019-02-11T08:44:39.266Z,627.2
2019-02-11T08:46:46.121Z,626
2019-02-11T08:47:48.601Z,626
2019-02-11T08:48:51.165Z,625.8
2019-02-11T08:49:53.367Z,625.7
2019-02-11T08:50:55.517Z,625.4
2019-02-11T08:51:57.163Z,625
2019-02-11T08:52:59.298Z,624.9
2019-02-11T08:54:01.465Z,624.9
2019-02-11T08:55:03.626Z,624.6
2019-02-11T08:56:05.779Z,624.9
2019-02-11T08:57:08.204Z,624.1
2019-02-11T08:58:10.638Z,624.1
2019-02-11T08:59:12.769Z,623.3
2019-02-11T09:00:15.195Z,622.7
2019-02-11T09:01:17.625Z,622.2
2019-02-11T09:02:19.781Z,622.5
2019-02-11T09:03:21.953Z,621.9
2019-02-11T09:04:24.115Z,622.2
2019-02-11T09:05:26.242Z,621.1
2019-02-11T09:06:28.378Z,621
2019-02-11T09:07:30.013Z,620.8
2019-02-11T09:08:32.439Z,620
2019-02-11T09:09:34.866Z,620.4
2019-02-11T09:10:37.304Z,620.3
2019-02-11T09:11:39.737Z,620.1
2019-02-11T09:12:42.158Z,619.6
2019-02-11T09:13:44.317Z,619.7
2019-02-11T09:14:46.769Z,619.8
2019-02-11T09:16:53.907Z,619.6
2019-02-11T09:17:55.817Z,618.9
2019-02-11T09:18:57.963Z,619.1
2019-02-11T09:20:00.389Z,618.9
2019-02-11T09:21:02.875Z,619.1
2019-02-11T09:23:10.316Z,618.7
2019-02-11T09:24:12.193Z,618.4
2019-02-11T09:25:14.677Z,617.7
2019-02-11T09:26:17.101Z,617.9
2019-02-11T09:27:19.541Z,618
2019-02-11T09:28:21.688Z,618.4
2019-02-11T09:29:23.834Z,617.8
2019-02-11T09:30:25.711Z,618
2019-02-11T09:31:28.142Z,618.1
2019-02-11T09:32:30.295Z,617.9
2019-02-11T09:33:32.485Z,617.5
2019-02-11T09:34:34.951Z,617.1
2019-02-11T09:35:37.365Z,616.8
2019-02-11T09:36:39.512Z,617.2
2019-02-11T09:37:41.939Z,616.9
2019-02-11T09:38:44.265Z,616.8
2019-02-11T09:39:46.509Z,616.7
2019-02-11T09:40:48.704Z,617.1
2019-02-11T09:41:51.146Z,616.6
2019-02-11T09:42:53.575Z,616.6
2019-02-11T09:43:55.732Z,616.2
2019-02-11T09:44:58.163Z,615.9
2019-02-11T09:47:05.572Z,616.1
2019-02-11T09:48:07.740Z,615.6
2019-02-11T09:49:09.894Z,615.9
2019-02-11T09:50:12.035Z,616.1
2019-02-11T09:51:14.466Z,615.4
2019-02-11T09:52:16.327Z,615.2
2019-02-11T09:53:18.763Z,615.1
2019-02-11T09:54:21.200Z,614.6
2019-02-11T09:55:23.355Z,614.3
2019-02-11T09:56:25.231Z,614.4
2019-02-11T09:57:26.827Z,614.7
2019-02-11T09:58:29.015Z,614.5
2019-02-11T09:59:31.175Z,614.4
2019-02-11T10:00:33.609Z,613.9
2019-02-11T10:01:36.064Z,613.8
2019-02-11T10:02:38.227Z,613.5
2019-02-11T10:03:40.386Z,613.3
2019-02-11T10:04:42.266Z,613.2
2019-02-11T10:05:44.704Z,613
2019-02-11T10:06:46.845Z,612.8
2019-02-11T10:07:49.265Z,612.4
2019-02-11T10:08:51.699Z,612.8
2019-02-11T10:09:53.868Z,611.8
2019-02-11T10:10:56.029Z,612.2
2019-02-11T10:11:58.191Z,611.6
2019-02-11T10:13:00.615Z,611.7
2019-02-11T10:14:03.058Z,611.7
2019-02-11T10:15:05.480Z,611.3
2019-02-11T10:17:12.605Z,610.8
2019-02-11T10:18:15.027Z,610.6
2019-02-11T10:19:17.450Z,610.2
2019-02-11T10:20:19.599Z,610.1
2019-02-11T10:21:22.025Z,609.9
2019-02-11T10:22:24.439Z,609.6
2019-02-11T10:23:26.316Z,609.4
2019-02-11T10:24:28.759Z,609.4
2019-02-11T10:25:30.643Z,608.8
2019-02-11T10:26:32.828Z,608.9
2019-02-11T10:27:34.756Z,608.9
2019-02-11T10:28:36.912Z,608.6
2019-02-11T10:29:38.498Z,608.4
2019-02-11T10:30:40.964Z,608.1
2019-02-11T10:31:43.114Z,608.4
2019-02-11T10:32:45.306Z,608.2
2019-02-11T10:33:47.738Z,608
2019-02-11T10:34:50.209Z,607.7
2019-02-11T10:35:52.631Z,607.4
2019-02-11T10:36:55.067Z,607.4
2019-02-11T10:37:57.203Z,607.5
2019-02-11T10:38:59.368Z,607.5
2019-02-11T10:40:01.586Z,606.4
2019-02-11T10:41:03.487Z,607.1
2019-02-11T10:42:05.084Z,607
2019-02-11T10:43:07.253Z,607
2019-02-11T10:44:10.774Z,606.8
2019-02-11T10:45:13.221Z,606.5
2019-02-11T10:47:20.623Z,606.4
2019-02-11T10:48:23.058Z,605.9
2019-02-11T10:49:25.473Z,606
2019-02-11T10:50:27.916Z,605.7
2019-02-11T10:51:30.354Z,605.6
2019-02-11T10:52:32.785Z,605.5
2019-02-11T10:53:35.217Z,605.3
2019-02-11T10:54:37.639Z,604.9
2019-02-11T10:55:40.110Z,605.4
2019-02-11T10:56:42.557Z,605.4
2019-02-11T10:57:44.722Z,605.4
2019-02-11T10:58:46.887Z,605.4
2019-02-11T10:59:48.772Z,604.7
2019-02-11T11:00:51.201Z,604.6
2019-02-11T11:01:53.625Z,605
2019-02-11T11:02:56.051Z,604.5
2019-02-11T11:03:58.209Z,604.3
2019-02-11T11:05:00.366Z,604.2
2019-02-11T11:06:02.526Z,604.1
2019-02-11T11:07:04.405Z,603.7
2019-02-11T11:08:06.563Z,603.7
2019-02-11T11:09:08.704Z,603.6
2019-02-11T11:10:10.583Z,603.2
2019-02-11T11:11:13.024Z,603.3
2019-02-11T11:12:15.166Z,603.3
2019-02-11T11:13:17.606Z,603.2
2019-02-11T11:14:19.753Z,602.9
2019-02-11T11:15:22.174Z,602.5
2019-02-11T11:17:29.579Z,602.6
2019-02-11T11:18:31.473Z,601.9
2019-02-11T11:19:33.612Z,602.2
2019-02-11T11:20:36.036Z,602.3
2019-02-11T11:21:39.755Z,602
2019-02-11T11:22:42.191Z,601.8
2019-02-11T11:23:44.619Z,601.5
2019-02-11T11:24:46.478Z,601.2
2019-02-11T11:25:48.684Z,600.8
2019-02-11T11:26:50.862Z,601.3
2019-02-11T11:27:53.027Z,600.9
2019-02-11T11:28:55.181Z,600.8
2019-02-11T11:29:57.039Z,600.5
2019-02-11T11:30:58.894Z,600.6
2019-02-11T11:32:01.035Z,600.4
2019-02-11T11:33:03.461Z,599.7
2019-02-11T11:34:05.626Z,600.1
2019-02-11T11:35:07.773Z,599.7
2019-02-11T11:36:10.277Z,599.6
2019-02-11T11:37:14.400Z,599.4
2019-02-11T11:38:16.567Z,599.3
2019-02-11T11:39:18.436Z,599.2
2019-02-11T11:40:20.870Z,599.1
2019-02-11T11:41:23.026Z,599
2019-02-11T11:42:25.470Z,598.6
2019-02-11T11:43:27.643Z,598.3
2019-02-11T11:44:30.079Z,598.4
2019-02-11T11:45:32.234Z,598
2019-02-11T11:47:39.371Z,598
2019-02-11T11:48:41.504Z,597.9
2019-02-11T11:49:43.666Z,598.1
2019-02-11T11:50:45.301Z,597.4
2019-02-11T11:51:47.786Z,597.5
2019-02-11T11:52:49.945Z,597.6
2019-02-11T11:53:52.104Z,597.2
2019-02-11T11:54:54.556Z,596.8
2019-02-11T11:55:56.813Z,596.9
2019-02-11T11:57:01.429Z,596.7
2019-02-11T11:58:03.866Z,596.7
2019-02-11T11:59:05.808Z,596.9
2019-02-11T12:00:08.251Z,595.7
2019-02-11T12:01:10.680Z,595.7
2019-02-11T12:03:18.181Z,595.6
2019-02-11T12:04:20.112Z,595.6
2019-02-11T12:05:22.593Z,595.7
2019-02-11T12:07:30.013Z,595.4
2019-02-11T12:08:32.591Z,595.4
2019-02-11T12:09:34.759Z,594.9
2019-02-11T12:10:37.196Z,595.2
2019-02-11T12:11:39.361Z,594
2019-02-11T12:12:41.531Z,594.3
2019-02-11T12:13:43.705Z,593.6
2019-02-11T12:14:45.922Z,593.5
2019-02-11T12:15:48.341Z,593.4
2019-02-11T12:17:55.944Z,592.8
2019-02-11T12:18:57.829Z,593.3
2019-02-11T12:20:00.307Z,592.8
2019-02-11T12:21:02.747Z,592.5
2019-02-11T12:22:05.177Z,593.2
2019-02-11T12:23:07.346Z,592.5
2019-02-11T12:24:09.229Z,593
2019-02-11T12:25:11.708Z,592.9
2019-02-11T12:26:14.144Z,592.7
2019-02-11T12:27:16.602Z,592.3
2019-02-11T12:28:18.793Z,592.3
2019-02-11T12:29:20.950Z,592.2
2019-02-11T12:30:23.192Z,592.6
2019-02-11T12:31:25.530Z,591.8
2019-02-11T12:32:27.962Z,592.2
2019-02-11T12:33:30.129Z,591.7
2019-02-11T12:34:32.566Z,591.8
2019-02-11T12:35:35.044Z,591.8
2019-02-11T12:36:37.502Z,591.7
2019-02-11T12:37:39.683Z,591.9
2019-02-11T12:38:42.126Z,591.8
2019-02-11T12:39:44.558Z,591.6
2019-02-11T12:40:47.075Z,591.3
2019-02-11T12:41:49.274Z,590.9
2019-02-11T12:43:56.682Z,590.8
2019-02-11T12:44:59.141Z,590.6
2019-02-11T12:46:01.036Z,589.9
2019-02-11T12:48:08.449Z,589.8
2019-02-11T12:49:10.896Z,589.6
2019-02-11T12:50:13.356Z,589.6
2019-02-11T12:51:15.293Z,588.8
2019-02-11T12:52:17.192Z,588.8
2019-02-11T12:53:19.669Z,589.4
2019-02-11T12:54:22.276Z,589.4
2019-02-11T12:55:24.750Z,589.2
2019-02-11T12:56:27.388Z,588.3
2019-02-11T12:57:29.833Z,588.4
2019-02-11T12:58:32.252Z,588.3
2019-02-11T12:59:34.722Z,588.3
2019-02-11T13:00:36.883Z,588.2
2019-02-11T13:01:39.320Z,587.6
2019-02-11T13:02:41.790Z,587.9
2019-02-11T13:03:43.675Z,587.4
2019-02-11T13:04:46.156Z,587.4
2019-02-11T13:05:48.802Z,587.4
2019-02-11T13:06:50.702Z,587.2
2019-02-11T13:07:52.987Z,587.2
2019-02-11T13:08:55.233Z,587
2019-02-11T13:09:57.684Z,586.7
2019-02-11T13:11:00.127Z,586.4
2019-02-11T13:12:02.592Z,586.5
2019-02-11T13:14:09.729Z,585.6
2019-02-11T13:15:11.133Z,585.6
2019-02-11T13:16:13.329Z,585.4
2019-02-11T13:18:21.063Z,585.4
2019-02-11T13:19:23.673Z,585.7
2019-02-11T13:20:26.105Z,585.4
2019-02-11T13:21:28.275Z,585.7
2019-02-11T13:22:30.710Z,585.5
2019-02-11T13:23:33.142Z,585.5
2019-02-11T13:24:35.312Z,584.7
2019-02-11T13:25:37.838Z,585
2019-02-11T13:26:40.016Z,585
2019-02-11T13:27:42.481Z,584.7
2019-02-11T13:28:44.935Z,584.7
2019-02-11T13:29:47.393Z,585.1
2019-02-11T13:30:49.874Z,584.8
2019-02-11T13:31:51.783Z,585.5
2019-02-11T13:32:53.976Z,585
2019-02-11T13:33:56.417Z,584.3
2019-02-11T13:34:58.581Z,584.6
2019-02-11T13:36:01.044Z,584.6
2019-02-11T13:37:03.531Z,584
2019-02-11T13:38:05.962Z,583.8
2019-02-11T13:39:08.403Z,583.5
2019-02-11T13:40:10.310Z,583.7
2019-02-11T13:41:12.790Z,583.4
2019-02-11T13:42:15.256Z,583.5
2019-02-11T13:43:17.445Z,583.6
2019-02-11T13:44:19.875Z,583.3
2019-02-11T13:45:22.963Z,583
2019-02-11T13:46:25.150Z,583
2019-02-11T13:47:27.600Z,582.7
2019-02-11T13:49:35.758Z,582.8
2019-02-11T13:50:38.185Z,582.2
2019-02-11T13:51:40.343Z,582.5
2019-02-11T13:52:42.772Z,582
2019-02-11T13:53:45.945Z,582.3
2019-02-11T13:54:48.370Z,582.6
2019-02-11T13:55:50.578Z,582.2
2019-02-11T13:56:53.135Z,581.8
2019-02-11T13:57:55.638Z,582.2
2019-02-11T13:58:57.901Z,581.8
2019-02-11T14:00:00.639Z,581.6
2019-02-11T14:01:03.123Z,581.1